sensor_id;sensor_type;location;lat;lon;timestamp;P1;durP1;ratioP1;P2;durP2;ratioP2
18997;SDS011;9632;51.018;4.284;2023-04-21T00:00:55;13.25;;;8.13;;
18997;SDS011;9632;51.018;4.284;2023-04-21T00:03:21;15.02;;;8.70;;
18997;SDS011;9632;51.018;4.284;2023-04-21T00:05:51;14.30;;;8.43;;
18997;SDS011;9632;51.018;4.284;2023-04-21T00:08:20;14.05;;;8.35;;
18997;SDS011;9632;51.018;4.284;2023-04-21T00:10:47;13.70;;;8.80;;
18997;SDS011;9632;51.018;4.284;2023-04-21T00:13:13;13.20;;;8.38;;
18997;SDS011;9632;51.018;4.284;2023-04-21T00:15:38;15.68;;;9.45;;
18997;SDS011;9632;51.018;4.284;2023-04-21T00:18:04;13.13;;;9.13;;
18997;SDS011;9632;51.018;4.284;2023-04-21T00:20:30;14.98;;;9.07;;
18997;SDS011;9632;51.018;4.284;2023-04-21T00:22:56;15.10;;;9.00;;
18997;SDS011;9632;51.018;4.284;2023-04-21T00:25:23;11.65;;;8.57;;
18997;SDS011;9632;51.018;4.284;2023-04-21T00:27:49;14.18;;;8.48;;
18997;SDS011;9632;51.018;4.284;2023-04-21T00:30:15;15.52;;;9.05;;
18997;SDS011;9632;51.018;4.284;2023-04-21T00:32:41;14.23;;;9.10;;
18997;SDS011;9632;51.018;4.284;2023-04-21T00:35:06;16.65;;;9.48;;
18997;SDS011;9632;51.018;4.284;2023-04-21T00:37:33;15.40;;;9.50;;
18997;SDS011;9632;51.018;4.284;2023-04-21T00:39:59;14.40;;;8.85;;
18997;SDS011;9632;51.018;4.284;2023-04-21T00:42:24;12.50;;;8.15;;
18997;SDS011;9632;51.018;4.284;2023-04-21T00:44:50;13.82;;;8.98;;
18997;SDS011;9632;51.018;4.284;2023-04-21T00:47:16;13.60;;;8.60;;
18997;SDS011;9632;51.018;4.284;2023-04-21T00:49:43;15.20;;;9.63;;
18997;SDS011;9632;51.018;4.284;2023-04-21T00:52:09;14.35;;;9.25;;
18997;SDS011;9632;51.018;4.284;2023-04-21T00:54:36;14.27;;;9.13;;
18997;SDS011;9632;51.018;4.284;2023-04-21T00:57:01;15.20;;;8.90;;
18997;SDS011;9632;51.018;4.284;2023-04-21T00:59:31;13.45;;;9.35;;
18997;SDS011;9632;51.018;4.284;2023-04-21T01:01:56;13.20;;;9.55;;
18997;SDS011;9632;51.018;4.284;2023-04-21T01:04:22;15.45;;;10.23;;
18997;SDS011;9632;51.018;4.284;2023-04-21T01:06:48;16.13;;;10.18;;
18997;SDS011;9632;51.018;4.284;2023-04-21T01:09:13;15.77;;;10.35;;
18997;SDS011;9632;51.018;4.284;2023-04-21T01:11:39;15.27;;;10.60;;
18997;SDS011;9632;51.018;4.284;2023-04-21T01:14:05;13.88;;;9.95;;
18997;SDS011;9632;51.018;4.284;2023-04-21T01:16:31;16.13;;;10.55;;
18997;SDS011;9632;51.018;4.284;2023-04-21T01:18:57;17.10;;;10.55;;
18997;SDS011;9632;51.018;4.284;2023-04-21T01:21:24;15.00;;;9.85;;
18997;SDS011;9632;51.018;4.284;2023-04-21T01:23:51;15.77;;;10.73;;
18997;SDS011;9632;51.018;4.284;2023-04-21T01:26:20;19.85;;;10.98;;
18997;SDS011;9632;51.018;4.284;2023-04-21T01:28:47;17.70;;;10.93;;
18997;SDS011;9632;51.018;4.284;2023-04-21T01:31:16;15.38;;;10.57;;
18997;SDS011;9632;51.018;4.284;2023-04-21T01:33:42;15.80;;;10.57;;
18997;SDS011;9632;51.018;4.284;2023-04-21T01:36:09;17.65;;;11.15;;
18997;SDS011;9632;51.018;4.284;2023-04-21T01:38:41;17.50;;;11.88;;
18997;SDS011;9632;51.018;4.284;2023-04-21T01:41:07;17.90;;;11.35;;
18997;SDS011;9632;51.018;4.284;2023-04-21T01:43:34;19.63;;;13.23;;
18997;SDS011;9632;51.018;4.284;2023-04-21T01:46:01;22.10;;;14.27;;
18997;SDS011;9632;51.018;4.284;2023-04-21T01:48:27;20.55;;;13.90;;
18997;SDS011;9632;51.018;4.284;2023-04-21T01:50:53;24.30;;;15.70;;
18997;SDS011;9632;51.018;4.284;2023-04-21T01:53:18;24.48;;;15.88;;
18997;SDS011;9632;51.018;4.284;2023-04-21T01:55:44;23.05;;;15.45;;
18997;SDS011;9632;51.018;4.284;2023-04-21T01:58:10;29.02;;;17.27;;
18997;SDS011;9632;51.018;4.284;2023-04-21T02:00:35;30.58;;;19.75;;
18997;SDS011;9632;51.018;4.284;2023-04-21T02:03:01;32.22;;;19.73;;
18997;SDS011;9632;51.018;4.284;2023-04-21T02:05:27;31.75;;;20.98;;
18997;SDS011;9632;51.018;4.284;2023-04-21T02:07:53;32.30;;;20.25;;
18997;SDS011;9632;51.018;4.284;2023-04-21T02:10:18;30.27;;;19.55;;
18997;SDS011;9632;51.018;4.284;2023-04-21T02:12:44;31.13;;;19.75;;
18997;SDS011;9632;51.018;4.284;2023-04-21T02:15:10;33.08;;;21.77;;
18997;SDS011;9632;51.018;4.284;2023-04-21T02:17:36;34.00;;;21.25;;
18997;SDS011;9632;51.018;4.284;2023-04-21T02:20:01;34.38;;;21.40;;
18997;SDS011;9632;51.018;4.284;2023-04-21T02:22:28;34.25;;;22.10;;
18997;SDS011;9632;51.018;4.284;2023-04-21T02:24:54;33.30;;;21.73;;
18997;SDS011;9632;51.018;4.284;2023-04-21T02:27:20;34.17;;;22.88;;
18997;SDS011;9632;51.018;4.284;2023-04-21T02:29:45;34.50;;;22.08;;
18997;SDS011;9632;51.018;4.284;2023-04-21T02:32:11;41.45;;;25.00;;
18997;SDS011;9632;51.018;4.284;2023-04-21T02:34:36;36.80;;;23.80;;
18997;SDS011;9632;51.018;4.284;2023-04-21T02:37:02;39.53;;;24.05;;
18997;SDS011;9632;51.018;4.284;2023-04-21T02:39:28;38.95;;;25.30;;
18997;SDS011;9632;51.018;4.284;2023-04-21T02:41:54;37.40;;;23.88;;
18997;SDS011;9632;51.018;4.284;2023-04-21T02:44:20;36.80;;;23.58;;
18997;SDS011;9632;51.018;4.284;2023-04-21T02:46:46;39.47;;;24.77;;
18997;SDS011;9632;51.018;4.284;2023-04-21T02:49:12;40.60;;;26.35;;
18997;SDS011;9632;51.018;4.284;2023-04-21T02:51:37;44.10;;;27.08;;
18997;SDS011;9632;51.018;4.284;2023-04-21T02:54:03;40.28;;;25.63;;
18997;SDS011;9632;51.018;4.284;2023-04-21T02:56:29;40.38;;;25.00;;
18997;SDS011;9632;51.018;4.284;2023-04-21T02:58:55;41.63;;;25.45;;
18997;SDS011;9632;51.018;4.284;2023-04-21T03:01:21;40.45;;;25.55;;
18997;SDS011;9632;51.018;4.284;2023-04-21T03:03:47;39.80;;;24.77;;
18997;SDS011;9632;51.018;4.284;2023-04-21T03:06:12;42.85;;;26.92;;
18997;SDS011;9632;51.018;4.284;2023-04-21T03:08:38;41.47;;;26.52;;
18997;SDS011;9632;51.018;4.284;2023-04-21T03:11:04;40.15;;;26.30;;
18997;SDS011;9632;51.018;4.284;2023-04-21T03:13:29;40.78;;;26.60;;
18997;SDS011;9632;51.018;4.284;2023-04-21T03:15:55;43.30;;;26.83;;
18997;SDS011;9632;51.018;4.284;2023-04-21T03:18:21;41.20;;;25.33;;
18997;SDS011;9632;51.018;4.284;2023-04-21T03:20:47;42.40;;;26.48;;
18997;SDS011;9632;51.018;4.284;2023-04-21T03:23:12;44.42;;;27.15;;
18997;SDS011;9632;51.018;4.284;2023-04-21T03:25:38;40.78;;;25.90;;
18997;SDS011;9632;51.018;4.284;2023-04-21T03:28:04;45.75;;;28.38;;
18997;SDS011;9632;51.018;4.284;2023-04-21T03:30:29;46.20;;;28.58;;
18997;SDS011;9632;51.018;4.284;2023-04-21T03:32:55;46.75;;;28.55;;
18997;SDS011;9632;51.018;4.284;2023-04-21T03:35:22;43.20;;;27.35;;
18997;SDS011;9632;51.018;4.284;2023-04-21T03:37:48;42.88;;;27.58;;
18997;SDS011;9632;51.018;4.284;2023-04-21T03:40:14;43.83;;;27.23;;
18997;SDS011;9632;51.018;4.284;2023-04-21T03:42:39;39.80;;;26.23;;
18997;SDS011;9632;51.018;4.284;2023-04-21T03:45:06;49.05;;;29.77;;
18997;SDS011;9632;51.018;4.284;2023-04-21T03:47:33;45.72;;;28.63;;
18997;SDS011;9632;51.018;4.284;2023-04-21T03:49:59;48.03;;;29.73;;
18997;SDS011;9632;51.018;4.284;2023-04-21T03:52:24;48.00;;;29.80;;
18997;SDS011;9632;51.018;4.284;2023-04-21T03:54:50;46.30;;;28.60;;
18997;SDS011;9632;51.018;4.284;2023-04-21T03:57:16;47.97;;;29.38;;
18997;SDS011;9632;51.018;4.284;2023-04-21T03:59:41;46.75;;;28.67;;
18997;SDS011;9632;51.018;4.284;2023-04-21T04:02:07;49.33;;;29.55;;
18997;SDS011;9632;51.018;4.284;2023-04-21T04:04:33;47.95;;;29.33;;
18997;SDS011;9632;51.018;4.284;2023-04-21T04:07:00;45.45;;;28.75;;
18997;SDS011;9632;51.018;4.284;2023-04-21T04:09:26;48.70;;;29.90;;
18997;SDS011;9632;51.018;4.284;2023-04-21T04:11:51;46.20;;;29.33;;
18997;SDS011;9632;51.018;4.284;2023-04-21T04:14:17;49.95;;;30.30;;
18997;SDS011;9632;51.018;4.284;2023-04-21T04:16:43;50.03;;;31.10;;
18997;SDS011;9632;51.018;4.284;2023-04-21T04:19:08;48.08;;;29.58;;
18997;SDS011;9632;51.018;4.284;2023-04-21T04:21:34;50.67;;;30.45;;
18997;SDS011;9632;51.018;4.284;2023-04-21T04:24:01;49.22;;;29.48;;
18997;SDS011;9632;51.018;4.284;2023-04-21T04:26:27;54.45;;;31.48;;
18997;SDS011;9632;51.018;4.284;2023-04-21T04:28:53;55.70;;;31.90;;
18997;SDS011;9632;51.018;4.284;2023-04-21T04:31:20;50.83;;;30.00;;
18997;SDS011;9632;51.018;4.284;2023-04-21T04:33:49;51.10;;;31.48;;
18997;SDS011;9632;51.018;4.284;2023-04-21T04:36:18;47.78;;;29.27;;
18997;SDS011;9632;51.018;4.284;2023-04-21T04:38:43;52.47;;;30.92;;
18997;SDS011;9632;51.018;4.284;2023-04-21T04:41:10;51.33;;;31.02;;
18997;SDS011;9632;51.018;4.284;2023-04-21T04:43:36;49.58;;;29.85;;
18997;SDS011;9632;51.018;4.284;2023-04-21T04:46:03;49.45;;;29.98;;
18997;SDS011;9632;51.018;4.284;2023-04-21T04:48:29;48.83;;;28.83;;
18997;SDS011;9632;51.018;4.284;2023-04-21T04:50:55;45.95;;;29.00;;
18997;SDS011;9632;51.018;4.284;2023-04-21T04:53:21;49.80;;;30.65;;
18997;SDS011;9632;51.018;4.284;2023-04-21T04:55:47;49.58;;;29.70;;
18997;SDS011;9632;51.018;4.284;2023-04-21T04:58:12;45.03;;;27.75;;
18997;SDS011;9632;51.018;4.284;2023-04-21T05:00:38;49.45;;;29.63;;
18997;SDS011;9632;51.018;4.284;2023-04-21T05:03:04;52.40;;;30.65;;
18997;SDS011;9632;51.018;4.284;2023-04-21T05:05:30;48.50;;;29.48;;
18997;SDS011;9632;51.018;4.284;2023-04-21T05:07:56;47.67;;;29.05;;
18997;SDS011;9632;51.018;4.284;2023-04-21T05:10:22;53.25;;;31.60;;
18997;SDS011;9632;51.018;4.284;2023-04-21T05:12:48;54.00;;;31.85;;
18997;SDS011;9632;51.018;4.284;2023-04-21T05:15:13;53.88;;;31.33;;
18997;SDS011;9632;51.018;4.284;2023-04-21T05:17:39;50.03;;;29.70;;
18997;SDS011;9632;51.018;4.284;2023-04-21T05:20:05;53.40;;;31.23;;
18997;SDS011;9632;51.018;4.284;2023-04-21T05:22:35;53.58;;;31.35;;
18997;SDS011;9632;51.018;4.284;2023-04-21T05:25:02;50.15;;;30.30;;
18997;SDS011;9632;51.018;4.284;2023-04-21T05:27:29;48.08;;;28.70;;
18997;SDS011;9632;51.018;4.284;2023-04-21T05:29:54;54.67;;;31.15;;
18997;SDS011;9632;51.018;4.284;2023-04-21T05:32:20;51.00;;;30.25;;
18997;SDS011;9632;51.018;4.284;2023-04-21T05:34:46;54.22;;;31.88;;
18997;SDS011;9632;51.018;4.284;2023-04-21T05:37:11;51.97;;;30.85;;
18997;SDS011;9632;51.018;4.284;2023-04-21T05:39:37;55.33;;;31.70;;
18997;SDS011;9632;51.018;4.284;2023-04-21T05:42:03;54.45;;;32.10;;
18997;SDS011;9632;51.018;4.284;2023-04-21T05:44:29;55.38;;;31.58;;
18997;SDS011;9632;51.018;4.284;2023-04-21T05:46:54;55.25;;;31.42;;
18997;SDS011;9632;51.018;4.284;2023-04-21T05:49:20;49.40;;;30.05;;
18997;SDS011;9632;51.018;4.284;2023-04-21T05:51:45;50.78;;;30.42;;
18997;SDS011;9632;51.018;4.284;2023-04-21T05:54:11;51.40;;;30.35;;
18997;SDS011;9632;51.018;4.284;2023-04-21T05:56:37;48.22;;;28.83;;
18997;SDS011;9632;51.018;4.284;2023-04-21T05:59:02;50.40;;;29.58;;
18997;SDS011;9632;51.018;4.284;2023-04-21T06:01:30;49.58;;;29.85;;
18997;SDS011;9632;51.018;4.284;2023-04-21T06:03:56;45.10;;;27.20;;
18997;SDS011;9632;51.018;4.284;2023-04-21T06:06:22;47.15;;;28.63;;
18997;SDS011;9632;51.018;4.284;2023-04-21T06:08:50;46.72;;;28.02;;
18997;SDS011;9632;51.018;4.284;2023-04-21T06:11:15;44.65;;;27.15;;
18997;SDS011;9632;51.018;4.284;2023-04-21T06:13:41;45.88;;;27.02;;
18997;SDS011;9632;51.018;4.284;2023-04-21T06:16:07;44.05;;;26.15;;
18997;SDS011;9632;51.018;4.284;2023-04-21T06:18:32;43.08;;;26.58;;
18997;SDS011;9632;51.018;4.284;2023-04-21T06:20:58;41.65;;;25.88;;
18997;SDS011;9632;51.018;4.284;2023-04-21T06:23:24;41.85;;;25.73;;
18997;SDS011;9632;51.018;4.284;2023-04-21T06:25:59;38.55;;;24.40;;
18997;SDS011;9632;51.018;4.284;2023-04-21T06:28:30;42.45;;;24.17;;
18997;SDS011;9632;51.018;4.284;2023-04-21T06:30:56;37.45;;;23.52;;
18997;SDS011;9632;51.018;4.284;2023-04-21T06:33:22;37.00;;;24.23;;
18997;SDS011;9632;51.018;4.284;2023-04-21T06:35:47;36.47;;;22.70;;
18997;SDS011;9632;51.018;4.284;2023-04-21T06:38:13;33.92;;;21.95;;
18997;SDS011;9632;51.018;4.284;2023-04-21T06:40:39;33.40;;;20.65;;
18997;SDS011;9632;51.018;4.284;2023-04-21T06:43:04;34.80;;;20.95;;
18997;SDS011;9632;51.018;4.284;2023-04-21T06:45:30;34.80;;;21.33;;
18997;SDS011;9632;51.018;4.284;2023-04-21T06:47:56;33.17;;;21.08;;
18997;SDS011;9632;51.018;4.284;2023-04-21T06:50:21;33.05;;;20.65;;
18997;SDS011;9632;51.018;4.284;2023-04-21T06:52:47;34.88;;;21.75;;
18997;SDS011;9632;51.018;4.284;2023-04-21T06:55:13;33.67;;;21.17;;
18997;SDS011;9632;51.018;4.284;2023-04-21T06:57:38;31.63;;;20.13;;
18997;SDS011;9632;51.018;4.284;2023-04-21T07:00:04;32.05;;;19.92;;
18997;SDS011;9632;51.018;4.284;2023-04-21T07:02:30;31.25;;;19.90;;
18997;SDS011;9632;51.018;4.284;2023-04-21T07:04:56;31.77;;;20.45;;
18997;SDS011;9632;51.018;4.284;2023-04-21T07:07:22;34.45;;;19.70;;
18997;SDS011;9632;51.018;4.284;2023-04-21T07:09:47;30.65;;;18.40;;
18997;SDS011;9632;51.018;4.284;2023-04-21T07:12:13;29.60;;;18.02;;
18997;SDS011;9632;51.018;4.284;2023-04-21T07:14:39;28.20;;;18.15;;
18997;SDS011;9632;51.018;4.284;2023-04-21T07:17:04;26.90;;;17.85;;
18997;SDS011;9632;51.018;4.284;2023-04-21T07:19:30;24.73;;;16.98;;
18997;SDS011;9632;51.018;4.284;2023-04-21T07:21:56;27.05;;;18.15;;
18997;SDS011;9632;51.018;4.284;2023-04-21T07:24:22;27.33;;;17.42;;
18997;SDS011;9632;51.018;4.284;2023-04-21T07:26:48;26.45;;;17.45;;
18997;SDS011;9632;51.018;4.284;2023-04-21T07:29:13;26.08;;;17.13;;
18997;SDS011;9632;51.018;4.284;2023-04-21T07:31:39;25.38;;;16.95;;
18997;SDS011;9632;51.018;4.284;2023-04-21T07:34:05;28.30;;;17.42;;
18997;SDS011;9632;51.018;4.284;2023-04-21T07:36:30;24.08;;;16.25;;
18997;SDS011;9632;51.018;4.284;2023-04-21T07:38:56;24.95;;;16.83;;
18997;SDS011;9632;51.018;4.284;2023-04-21T07:41:22;23.90;;;15.45;;
18997;SDS011;9632;51.018;4.284;2023-04-21T07:43:47;24.65;;;16.58;;
18997;SDS011;9632;51.018;4.284;2023-04-21T07:46:13;26.02;;;16.48;;
18997;SDS011;9632;51.018;4.284;2023-04-21T07:48:39;23.63;;;15.80;;
18997;SDS011;9632;51.018;4.284;2023-04-21T07:51:05;23.90;;;15.63;;
18997;SDS011;9632;51.018;4.284;2023-04-21T07:53:31;23.67;;;15.00;;
18997;SDS011;9632;51.018;4.284;2023-04-21T07:55:56;20.92;;;14.27;;
18997;SDS011;9632;51.018;4.284;2023-04-21T07:58:22;20.20;;;13.00;;
18997;SDS011;9632;51.018;4.284;2023-04-21T08:00:48;22.00;;;14.13;;
18997;SDS011;9632;51.018;4.284;2023-04-21T08:03:14;23.15;;;14.10;;
18997;SDS011;9632;51.018;4.284;2023-04-21T08:05:40;20.55;;;14.05;;
18997;SDS011;9632;51.018;4.284;2023-04-21T08:08:05;20.17;;;13.48;;
18997;SDS011;9632;51.018;4.284;2023-04-21T08:10:31;20.13;;;12.88;;
18997;SDS011;9632;51.018;4.284;2023-04-21T08:12:57;20.13;;;13.45;;
18997;SDS011;9632;51.018;4.284;2023-04-21T08:15:23;21.30;;;13.77;;
18997;SDS011;9632;51.018;4.284;2023-04-21T08:17:49;20.83;;;13.30;;
18997;SDS011;9632;51.018;4.284;2023-04-21T08:20:15;22.52;;;13.20;;
18997;SDS011;9632;51.018;4.284;2023-04-21T08:22:41;18.25;;;12.45;;
18997;SDS011;9632;51.018;4.284;2023-04-21T08:25:07;18.90;;;12.25;;
18997;SDS011;9632;51.018;4.284;2023-04-21T08:27:33;18.90;;;12.43;;
18997;SDS011;9632;51.018;4.284;2023-04-21T08:30:01;17.25;;;11.82;;
18997;SDS011;9632;51.018;4.284;2023-04-21T08:32:27;20.23;;;13.05;;
18997;SDS011;9632;51.018;4.284;2023-04-21T08:34:52;18.08;;;11.65;;
18997;SDS011;9632;51.018;4.284;2023-04-21T08:37:19;18.15;;;11.32;;
18997;SDS011;9632;51.018;4.284;2023-04-21T08:39:45;18.20;;;12.10;;
18997;SDS011;9632;51.018;4.284;2023-04-21T08:42:12;16.13;;;10.60;;
18997;SDS011;9632;51.018;4.284;2023-04-21T08:44:40;15.77;;;11.35;;
18997;SDS011;9632;51.018;4.284;2023-04-21T08:47:09;16.13;;;11.20;;
18997;SDS011;9632;51.018;4.284;2023-04-21T08:49:38;15.85;;;10.60;;
18997;SDS011;9632;51.018;4.284;2023-04-21T08:52:05;17.55;;;11.27;;
18997;SDS011;9632;51.018;4.284;2023-04-21T08:54:31;16.58;;;11.07;;
18997;SDS011;9632;51.018;4.284;2023-04-21T08:56:57;18.58;;;11.50;;
18997;SDS011;9632;51.018;4.284;2023-04-21T08:59:24;15.63;;;10.60;;
18997;SDS011;9632;51.018;4.284;2023-04-21T09:02:05;15.50;;;10.73;;
18997;SDS011;9632;51.018;4.284;2023-04-21T09:04:36;17.80;;;12.00;;
18997;SDS011;9632;51.018;4.284;2023-04-21T09:07:03;15.93;;;10.90;;
18997;SDS011;9632;51.018;4.284;2023-04-21T09:09:29;16.92;;;11.25;;
18997;SDS011;9632;51.018;4.284;2023-04-21T09:11:55;15.30;;;11.07;;
18997;SDS011;9632;51.018;4.284;2023-04-21T09:14:27;16.00;;;10.82;;
18997;SDS011;9632;51.018;4.284;2023-04-21T09:16:59;16.77;;;11.25;;
18997;SDS011;9632;51.018;4.284;2023-04-21T09:19:28;17.08;;;11.80;;
18997;SDS011;9632;51.018;4.284;2023-04-21T09:21:57;19.13;;;11.48;;
18997;SDS011;9632;51.018;4.284;2023-04-21T09:24:25;18.00;;;11.05;;
18997;SDS011;9632;51.018;4.284;2023-04-21T09:26:51;19.40;;;11.05;;
18997;SDS011;9632;51.018;4.284;2023-04-21T09:29:21;17.13;;;10.88;;
18997;SDS011;9632;51.018;4.284;2023-04-21T09:31:48;13.95;;;9.93;;
18997;SDS011;9632;51.018;4.284;2023-04-21T09:34:16;17.08;;;11.30;;
18997;SDS011;9632;51.018;4.284;2023-04-21T09:36:48;15.60;;;11.10;;
18997;SDS011;9632;51.018;4.284;2023-04-21T09:39:30;16.38;;;10.68;;
18997;SDS011;9632;51.018;4.284;2023-04-21T09:41:57;16.45;;;10.65;;
18997;SDS011;9632;51.018;4.284;2023-04-21T09:44:23;15.00;;;10.10;;
18997;SDS011;9632;51.018;4.284;2023-04-21T09:46:50;14.30;;;9.88;;
18997;SDS011;9632;51.018;4.284;2023-04-21T09:49:21;14.90;;;9.98;;
18997;SDS011;9632;51.018;4.284;2023-04-21T09:51:49;14.43;;;9.35;;
18997;SDS011;9632;51.018;4.284;2023-04-21T09:54:15;15.70;;;9.75;;
18997;SDS011;9632;51.018;4.284;2023-04-21T09:56:42;13.90;;;9.43;;
18997;SDS011;9632;51.018;4.284;2023-04-21T09:59:12;13.77;;;9.48;;
18997;SDS011;9632;51.018;4.284;2023-04-21T10:01:43;12.77;;;9.00;;
18997;SDS011;9632;51.018;4.284;2023-04-21T10:04:12;13.15;;;9.07;;
18997;SDS011;9632;51.018;4.284;2023-04-21T10:06:39;16.00;;;9.60;;
18997;SDS011;9632;51.018;4.284;2023-04-21T10:09:05;13.65;;;9.32;;
18997;SDS011;9632;51.018;4.284;2023-04-21T10:11:34;13.52;;;9.50;;
18997;SDS011;9632;51.018;4.284;2023-04-21T10:14:01;15.82;;;9.80;;
18997;SDS011;9632;51.018;4.284;2023-04-21T10:16:28;31.73;;;9.48;;
18997;SDS011;9632;51.018;4.284;2023-04-21T10:18:53;12.90;;;9.13;;
18997;SDS011;9632;51.018;4.284;2023-04-21T10:21:19;12.30;;;8.27;;
18997;SDS011;9632;51.018;4.284;2023-04-21T10:23:52;10.32;;;6.88;;
18997;SDS011;9632;51.018;4.284;2023-04-21T10:36:30;12.10;;;7.95;;
18997;SDS011;9632;51.018;4.284;2023-04-21T10:39:00;16.10;;;8.07;;
18997;SDS011;9632;51.018;4.284;2023-04-21T10:41:30;13.10;;;7.93;;
18997;SDS011;9632;51.018;4.284;2023-04-21T10:43:58;11.07;;;7.88;;
18997;SDS011;9632;51.018;4.284;2023-04-21T10:46:37;11.90;;;8.45;;
18997;SDS011;9632;51.018;4.284;2023-04-21T10:49:28;11.57;;;8.00;;
18997;SDS011;9632;51.018;4.284;2023-04-21T10:57:10;10.52;;;6.47;;
18997;SDS011;9632;51.018;4.284;2023-04-21T10:59:37;11.43;;;6.95;;
18997;SDS011;9632;51.018;4.284;2023-04-21T11:02:06;12.40;;;7.38;;
18997;SDS011;9632;51.018;4.284;2023-04-21T11:04:34;11.07;;;6.88;;
18997;SDS011;9632;51.018;4.284;2023-04-21T11:07:11;13.27;;;7.03;;
18997;SDS011;9632;51.018;4.284;2023-04-21T11:09:41;9.68;;;6.53;;
18997;SDS011;9632;51.018;4.284;2023-04-21T11:12:11;10.75;;;6.63;;
18997;SDS011;9632;51.018;4.284;2023-04-21T11:14:43;10.05;;;6.90;;
18997;SDS011;9632;51.018;4.284;2023-04-21T11:17:13;10.13;;;6.78;;
18997;SDS011;9632;51.018;4.284;2023-04-21T11:19:50;11.48;;;6.95;;
18997;SDS011;9632;51.018;4.284;2023-04-21T11:22:20;10.68;;;7.43;;
18997;SDS011;9632;51.018;4.284;2023-04-21T11:24:49;10.98;;;7.30;;
18997;SDS011;9632;51.018;4.284;2023-04-21T11:27:17;8.98;;;5.88;;
18997;SDS011;9632;51.018;4.284;2023-04-21T11:29:43;8.27;;;5.95;;
18997;SDS011;9632;51.018;4.284;2023-04-21T11:32:10;12.48;;;6.68;;
18997;SDS011;9632;51.018;4.284;2023-04-21T11:34:37;10.60;;;7.05;;
18997;SDS011;9632;51.018;4.284;2023-04-21T11:37:03;12.15;;;8.00;;
18997;SDS011;9632;51.018;4.284;2023-04-21T11:39:34;14.05;;;7.47;;
18997;SDS011;9632;51.018;4.284;2023-04-21T11:42:00;12.40;;;6.80;;
18997;SDS011;9632;51.018;4.284;2023-04-21T11:46:58;11.88;;;6.90;;
18997;SDS011;9632;51.018;4.284;2023-04-21T11:49:24;13.65;;;6.88;;
18997;SDS011;9632;51.018;4.284;2023-04-21T11:51:53;11.80;;;8.15;;
18997;SDS011;9632;51.018;4.284;2023-04-21T11:54:20;11.02;;;7.32;;
18997;SDS011;9632;51.018;4.284;2023-04-21T11:56:48;14.02;;;8.15;;
18997;SDS011;9632;51.018;4.284;2023-04-21T11:59:16;14.18;;;9.40;;
18997;SDS011;9632;51.018;4.284;2023-04-21T12:01:51;13.82;;;9.07;;
18997;SDS011;9632;51.018;4.284;2023-04-21T12:06:45;13.65;;;9.07;;
18997;SDS011;9632;51.018;4.284;2023-04-21T12:09:17;15.57;;;9.25;;
18997;SDS011;9632;51.018;4.284;2023-04-21T12:11:51;15.10;;;9.05;;
18997;SDS011;9632;51.018;4.284;2023-04-21T12:14:19;19.00;;;10.13;;
18997;SDS011;9632;51.018;4.284;2023-04-21T12:16:49;17.95;;;10.43;;
18997;SDS011;9632;51.018;4.284;2023-04-21T12:19:23;15.10;;;9.45;;
18997;SDS011;9632;51.018;4.284;2023-04-21T12:21:53;15.23;;;9.27;;
18997;SDS011;9632;51.018;4.284;2023-04-21T12:24:20;17.33;;;10.60;;
18997;SDS011;9632;51.018;4.284;2023-04-21T12:26:46;16.08;;;10.68;;
18997;SDS011;9632;51.018;4.284;2023-04-21T12:29:12;14.70;;;9.23;;
18997;SDS011;9632;51.018;4.284;2023-04-21T12:31:37;18.70;;;10.60;;
18997;SDS011;9632;51.018;4.284;2023-04-21T12:34:03;16.17;;;10.02;;
18997;SDS011;9632;51.018;4.284;2023-04-21T12:36:29;14.05;;;10.00;;
18997;SDS011;9632;51.018;4.284;2023-04-21T12:38:54;16.25;;;9.80;;
18997;SDS011;9632;51.018;4.284;2023-04-21T12:41:20;15.75;;;9.65;;
18997;SDS011;9632;51.018;4.284;2023-04-21T12:43:46;12.70;;;8.50;;
18997;SDS011;9632;51.018;4.284;2023-04-21T12:46:12;14.30;;;9.13;;
18997;SDS011;9632;51.018;4.284;2023-04-21T12:48:37;12.98;;;9.02;;
18997;SDS011;9632;51.018;4.284;2023-04-21T12:51:03;15.02;;;10.48;;
18997;SDS011;9632;51.018;4.284;2023-04-21T12:53:29;19.15;;;12.60;;
18997;SDS011;9632;51.018;4.284;2023-04-21T12:55:55;18.88;;;12.20;;
18997;SDS011;9632;51.018;4.284;2023-04-21T12:58:21;17.67;;;10.27;;
18997;SDS011;9632;51.018;4.284;2023-04-21T13:00:46;15.70;;;10.35;;
18997;SDS011;9632;51.018;4.284;2023-04-21T13:03:12;14.93;;;10.73;;
18997;SDS011;9632;51.018;4.284;2023-04-21T13:05:38;17.20;;;11.38;;
18997;SDS011;9632;51.018;4.284;2023-04-21T13:08:03;16.60;;;11.23;;
18997;SDS011;9632;51.018;4.284;2023-04-21T13:10:29;16.27;;;9.50;;
18997;SDS011;9632;51.018;4.284;2023-04-21T13:12:55;13.82;;;9.50;;
18997;SDS011;9632;51.018;4.284;2023-04-21T13:15:21;15.60;;;9.90;;
18997;SDS011;9632;51.018;4.284;2023-04-21T13:17:46;15.25;;;9.07;;
18997;SDS011;9632;51.018;4.284;2023-04-21T13:20:12;13.40;;;8.98;;
18997;SDS011;9632;51.018;4.284;2023-04-21T13:22:38;14.20;;;8.98;;
18997;SDS011;9632;51.018;4.284;2023-04-21T13:25:07;14.00;;;8.95;;
18997;SDS011;9632;51.018;4.284;2023-04-21T13:27:33;11.63;;;8.55;;
18997;SDS011;9632;51.018;4.284;2023-04-21T13:29:58;12.30;;;8.30;;
18997;SDS011;9632;51.018;4.284;2023-04-21T13:32:24;14.50;;;8.23;;
18997;SDS011;9632;51.018;4.284;2023-04-21T13:34:50;13.80;;;7.50;;
18997;SDS011;9632;51.018;4.284;2023-04-21T13:37:17;12.23;;;7.05;;
18997;SDS011;9632;51.018;4.284;2023-04-21T13:39:43;9.80;;;6.28;;
18997;SDS011;9632;51.018;4.284;2023-04-21T13:42:09;9.75;;;5.38;;
18997;SDS011;9632;51.018;4.284;2023-04-21T13:44:35;10.15;;;5.38;;
18997;SDS011;9632;51.018;4.284;2023-04-21T13:47:01;8.02;;;4.75;;
18997;SDS011;9632;51.018;4.284;2023-04-21T13:49:27;7.97;;;4.40;;
18997;SDS011;9632;51.018;4.284;2023-04-21T13:51:52;6.57;;;4.15;;
18997;SDS011;9632;51.018;4.284;2023-04-21T13:54:18;9.13;;;5.32;;
18997;SDS011;9632;51.018;4.284;2023-04-21T13:56:44;8.32;;;4.80;;
18997;SDS011;9632;51.018;4.284;2023-04-21T13:59:09;11.73;;;5.07;;
18997;SDS011;9632;51.018;4.284;2023-04-21T14:01:38;6.70;;;4.00;;
18997;SDS011;9632;51.018;4.284;2023-04-21T14:04:05;5.25;;;3.78;;
18997;SDS011;9632;51.018;4.284;2023-04-21T14:06:31;6.80;;;3.90;;
18997;SDS011;9632;51.018;4.284;2023-04-21T14:08:57;5.82;;;3.72;;
18997;SDS011;9632;51.018;4.284;2023-04-21T14:11:23;4.90;;;3.28;;
18997;SDS011;9632;51.018;4.284;2023-04-21T14:13:49;8.00;;;3.75;;
18997;SDS011;9632;51.018;4.284;2023-04-21T14:16:14;4.22;;;2.90;;
18997;SDS011;9632;51.018;4.284;2023-04-21T14:18:40;4.95;;;3.30;;
18997;SDS011;9632;51.018;4.284;2023-04-21T14:21:09;4.22;;;3.03;;
18997;SDS011;9632;51.018;4.284;2023-04-21T14:23:35;6.10;;;3.30;;
18997;SDS011;9632;51.018;4.284;2023-04-21T14:26:02;4.65;;;2.67;;
18997;SDS011;9632;51.018;4.284;2023-04-21T14:28:28;4.78;;;3.25;;
18997;SDS011;9632;51.018;4.284;2023-04-21T14:30:55;6.28;;;3.47;;
18997;SDS011;9632;51.018;4.284;2023-04-21T14:33:21;9.65;;;3.45;;
18997;SDS011;9632;51.018;4.284;2023-04-21T14:35:46;6.50;;;4.10;;
18997;SDS011;9632;51.018;4.284;2023-04-21T14:38:12;7.30;;;4.03;;
18997;SDS011;9632;51.018;4.284;2023-04-21T14:40:38;8.07;;;4.15;;
18997;SDS011;9632;51.018;4.284;2023-04-21T14:43:04;8.73;;;3.80;;
18997;SDS011;9632;51.018;4.284;2023-04-21T14:45:30;5.72;;;3.38;;
18997;SDS011;9632;51.018;4.284;2023-04-21T14:47:55;5.05;;;3.38;;
18997;SDS011;9632;51.018;4.284;2023-04-21T14:50:21;7.63;;;3.88;;
18997;SDS011;9632;51.018;4.284;2023-04-21T14:52:47;8.70;;;4.22;;
18997;SDS011;9632;51.018;4.284;2023-04-21T14:55:13;6.82;;;3.90;;
18997;SDS011;9632;51.018;4.284;2023-04-21T14:57:40;7.22;;;4.35;;